Harrison, Tennessee
Current Conditions -  °F | °C
As of 6:53 PM on Wednesday 28 Jan 2015 (Local Time) from KCHA Reporting Station
Scattered Clouds Scattered Clouds  
Wind Chill: 43°   Ceiling: Unl
Heat Index: 43°   Visibility: 10mi
Dew Point: 15°   Wind: 0mph
Humidity: 32%   Direction: NA
Pressure: 30.25"   Gusts: NA
Location:  35.11°N, 85.14°W
Report Text: KCHA 282353Z 00000KT 10SM SCT250 06/M09 A3025 RMK AO2 SLP247 T00611094 10094 20056 55005
Loading
Personal Weather Stations






























Interactive Weather Map New forecast layout! Learn more

10-Day Weather Forecast

Advertisements
Track Severe Weather on mobile